sensor_id;sensor_type;location;lat;lon;timestamp;P1;durP1;ratioP1;P2;durP2;ratioP2
8622;SDS011;4349;47.552;8.904;2023-02-27T00:01:04;3.10;;;3.00;;
8622;SDS011;4349;47.552;8.904;2023-02-27T00:03:32;3.53;;;3.33;;
8622;SDS011;4349;47.552;8.904;2023-02-27T00:05:59;3.10;;;3.00;;
8622;SDS011;4349;47.552;8.904;2023-02-27T00:08:28;3.30;;;3.20;;
8622;SDS011;4349;47.552;8.904;2023-02-27T00:11:00;3.23;;;3.03;;
8622;SDS011;4349;47.552;8.904;2023-02-27T00:13:27;3.47;;;3.37;;
8622;SDS011;4349;47.552;8.904;2023-02-27T00:15:56;3.10;;;3.00;;
8622;SDS011;4349;47.552;8.904;2023-02-27T00:18:23;3.47;;;3.30;;
8622;SDS011;4349;47.552;8.904;2023-02-27T00:20:51;3.40;;;3.20;;
8622;SDS011;4349;47.552;8.904;2023-02-27T00:23:19;3.30;;;3.20;;
8622;SDS011;4349;47.552;8.904;2023-02-27T00:25:47;4.00;;;3.80;;
8622;SDS011;4349;47.552;8.904;2023-02-27T00:28:15;3.63;;;3.43;;
8622;SDS011;4349;47.552;8.904;2023-02-27T00:30:43;3.43;;;3.23;;
8622;SDS011;4349;47.552;8.904;2023-02-27T00:33:13;3.57;;;3.37;;
8622;SDS011;4349;47.552;8.904;2023-02-27T00:35:41;3.67;;;3.47;;
8622;SDS011;4349;47.552;8.904;2023-02-27T00:38:09;3.90;;;3.70;;
8622;SDS011;4349;47.552;8.904;2023-02-27T00:40:37;3.50;;;3.30;;
8622;SDS011;4349;47.552;8.904;2023-02-27T00:43:05;4.17;;;3.70;;
8622;SDS011;4349;47.552;8.904;2023-02-27T00:45:33;3.50;;;3.40;;
8622;SDS011;4349;47.552;8.904;2023-02-27T00:48:00;3.50;;;3.30;;
8622;SDS011;4349;47.552;8.904;2023-02-27T00:50:30;3.97;;;3.77;;
8622;SDS011;4349;47.552;8.904;2023-02-27T00:52:57;3.40;;;3.30;;
8622;SDS011;4349;47.552;8.904;2023-02-27T00:55:26;3.80;;;3.50;;
8622;SDS011;4349;47.552;8.904;2023-02-27T00:57:56;3.90;;;3.70;;
8622;SDS011;4349;47.552;8.904;2023-02-27T01:00:24;3.50;;;3.30;;
8622;SDS011;4349;47.552;8.904;2023-02-27T01:02:52;3.40;;;3.30;;
8622;SDS011;4349;47.552;8.904;2023-02-27T01:05:20;3.23;;;3.13;;
8622;SDS011;4349;47.552;8.904;2023-02-27T01:07:49;3.60;;;3.40;;
8622;SDS011;4349;47.552;8.904;2023-02-27T01:10:19;3.37;;;3.27;;
8622;SDS011;4349;47.552;8.904;2023-02-27T01:12:48;3.90;;;3.60;;
8622;SDS011;4349;47.552;8.904;2023-02-27T01:15:17;3.60;;;3.40;;
8622;SDS011;4349;47.552;8.904;2023-02-27T01:17:45;3.60;;;3.50;;
8622;SDS011;4349;47.552;8.904;2023-02-27T01:20:15;3.70;;;3.40;;
8622;SDS011;4349;47.552;8.904;2023-02-27T01:22:44;3.30;;;3.20;;
8622;SDS011;4349;47.552;8.904;2023-02-27T01:25:13;3.70;;;3.50;;
8622;SDS011;4349;47.552;8.904;2023-02-27T01:27:41;3.43;;;3.23;;
8622;SDS011;4349;47.552;8.904;2023-02-27T01:30:09;3.47;;;3.27;;
8622;SDS011;4349;47.552;8.904;2023-02-27T01:32:39;3.40;;;3.30;;
8622;SDS011;4349;47.552;8.904;2023-02-27T01:35:09;3.47;;;3.27;;
8622;SDS011;4349;47.552;8.904;2023-02-27T01:37:38;3.37;;;3.17;;
8622;SDS011;4349;47.552;8.904;2023-02-27T01:40:06;3.30;;;3.20;;
8622;SDS011;4349;47.552;8.904;2023-02-27T01:42:36;3.13;;;3.00;;
8622;SDS011;4349;47.552;8.904;2023-02-27T01:45:23;4.10;;;3.80;;
8622;SDS011;4349;47.552;8.904;2023-02-27T01:47:52;3.10;;;3.00;;
8622;SDS011;4349;47.552;8.904;2023-02-27T01:50:20;3.50;;;3.30;;
8622;SDS011;4349;47.552;8.904;2023-02-27T01:52:50;3.33;;;3.23;;
8622;SDS011;4349;47.552;8.904;2023-02-27T01:55:20;3.10;;;3.00;;
8622;SDS011;4349;47.552;8.904;2023-02-27T01:57:51;3.67;;;3.50;;
8622;SDS011;4349;47.552;8.904;2023-02-27T02:00:19;3.90;;;3.70;;
8622;SDS011;4349;47.552;8.904;2023-02-27T02:02:48;3.40;;;3.20;;
8622;SDS011;4349;47.552;8.904;2023-02-27T02:05:18;3.37;;;3.27;;
8622;SDS011;4349;47.552;8.904;2023-02-27T02:07:47;3.23;;;3.13;;
8622;SDS011;4349;47.552;8.904;2023-02-27T02:10:15;3.50;;;3.33;;
8622;SDS011;4349;47.552;8.904;2023-02-27T02:12:43;3.67;;;3.37;;
8622;SDS011;4349;47.552;8.904;2023-02-27T02:15:13;3.67;;;3.47;;
8622;SDS011;4349;47.552;8.904;2023-02-27T02:17:42;3.30;;;3.10;;
8622;SDS011;4349;47.552;8.904;2023-02-27T02:26:15;3.47;;;3.30;;
8622;SDS011;4349;47.552;8.904;2023-02-27T02:31:41;4.07;;;3.47;;
8622;SDS011;4349;47.552;8.904;2023-02-27T02:37:24;3.43;;;3.13;;
8622;SDS011;4349;47.552;8.904;2023-02-27T02:40:16;3.90;;;3.70;;
8622;SDS011;4349;47.552;8.904;2023-02-27T02:42:47;3.70;;;3.50;;
8622;SDS011;4349;47.552;8.904;2023-02-27T02:45:21;3.97;;;3.77;;
8622;SDS011;4349;47.552;8.904;2023-02-27T02:47:54;3.40;;;3.23;;
8622;SDS011;4349;47.552;8.904;2023-02-27T02:50:28;3.70;;;3.50;;
8622;SDS011;4349;47.552;8.904;2023-02-27T02:52:59;3.80;;;3.60;;
8622;SDS011;4349;47.552;8.904;2023-02-27T02:55:31;3.80;;;3.60;;
8622;SDS011;4349;47.552;8.904;2023-02-27T02:58:00;3.67;;;3.47;;
8622;SDS011;4349;47.552;8.904;2023-02-27T03:00:30;3.50;;;3.20;;
8622;SDS011;4349;47.552;8.904;2023-02-27T03:03:02;3.90;;;3.60;;
8622;SDS011;4349;47.552;8.904;2023-02-27T03:05:31;3.60;;;3.50;;
8622;SDS011;4349;47.552;8.904;2023-02-27T03:08:02;3.63;;;3.43;;
8622;SDS011;4349;47.552;8.904;2023-02-27T03:10:33;3.53;;;3.27;;
8622;SDS011;4349;47.552;8.904;2023-02-27T03:13:03;3.27;;;3.17;;
8622;SDS011;4349;47.552;8.904;2023-02-27T03:15:35;4.33;;;3.37;;
8622;SDS011;4349;47.552;8.904;2023-02-27T03:18:07;3.40;;;3.20;;
8622;SDS011;4349;47.552;8.904;2023-02-27T03:20:44;2.90;;;2.80;;
8622;SDS011;4349;47.552;8.904;2023-02-27T03:23:14;3.43;;;3.23;;
8622;SDS011;4349;47.552;8.904;2023-02-27T03:25:44;3.50;;;3.30;;
8622;SDS011;4349;47.552;8.904;2023-02-27T03:28:13;3.40;;;3.20;;
8622;SDS011;4349;47.552;8.904;2023-02-27T03:30:44;2.87;;;2.77;;
8622;SDS011;4349;47.552;8.904;2023-02-27T03:33:15;3.23;;;3.03;;
8622;SDS011;4349;47.552;8.904;2023-02-27T03:35:46;3.90;;;3.70;;
8622;SDS011;4349;47.552;8.904;2023-02-27T03:38:17;3.50;;;3.30;;
8622;SDS011;4349;47.552;8.904;2023-02-27T03:40:51;3.30;;;3.20;;
8622;SDS011;4349;47.552;8.904;2023-02-27T03:43:29;3.33;;;3.20;;
8622;SDS011;4349;47.552;8.904;2023-02-27T03:45:59;3.53;;;3.23;;
8622;SDS011;4349;47.552;8.904;2023-02-27T03:48:27;3.23;;;3.13;;
8622;SDS011;4349;47.552;8.904;2023-02-27T03:50:55;3.33;;;3.13;;
8622;SDS011;4349;47.552;8.904;2023-02-27T03:53:24;3.47;;;3.27;;
8622;SDS011;4349;47.552;8.904;2023-02-27T03:55:55;3.83;;;3.63;;
8622;SDS011;4349;47.552;8.904;2023-02-27T03:58:24;3.70;;;3.50;;
8622;SDS011;4349;47.552;8.904;2023-02-27T04:00:52;3.40;;;3.20;;
8622;SDS011;4349;47.552;8.904;2023-02-27T04:03:20;3.77;;;3.47;;
8622;SDS011;4349;47.552;8.904;2023-02-27T04:05:48;3.27;;;3.17;;
8622;SDS011;4349;47.552;8.904;2023-02-27T04:08:33;3.53;;;3.40;;
8622;SDS011;4349;47.552;8.904;2023-02-27T04:11:13;3.20;;;3.10;;
8622;SDS011;4349;47.552;8.904;2023-02-27T04:13:46;3.40;;;3.20;;
8622;SDS011;4349;47.552;8.904;2023-02-27T04:16:35;3.57;;;3.37;;
8622;SDS011;4349;47.552;8.904;2023-02-27T04:19:13;3.50;;;3.40;;
8622;SDS011;4349;47.552;8.904;2023-02-27T04:21:47;3.83;;;3.30;;
8622;SDS011;4349;47.552;8.904;2023-02-27T04:24:18;3.70;;;3.40;;
8622;SDS011;4349;47.552;8.904;2023-02-27T04:26:53;3.30;;;3.10;;
8622;SDS011;4349;47.552;8.904;2023-02-27T04:29:23;3.53;;;3.37;;
8622;SDS011;4349;47.552;8.904;2023-02-27T04:31:56;3.77;;;3.50;;
8622;SDS011;4349;47.552;8.904;2023-02-27T04:34:29;3.53;;;3.43;;
8622;SDS011;4349;47.552;8.904;2023-02-27T04:36:58;4.07;;;3.77;;
8622;SDS011;4349;47.552;8.904;2023-02-27T04:39:27;3.63;;;3.50;;
8622;SDS011;4349;47.552;8.904;2023-02-27T04:41:58;3.30;;;3.20;;
8622;SDS011;4349;47.552;8.904;2023-02-27T04:44:29;4.00;;;3.70;;
8622;SDS011;4349;47.552;8.904;2023-02-27T04:47:00;3.67;;;3.37;;
8622;SDS011;4349;47.552;8.904;2023-02-27T04:49:30;3.70;;;3.50;;
8622;SDS011;4349;47.552;8.904;2023-02-27T04:51:59;3.67;;;3.47;;
8622;SDS011;4349;47.552;8.904;2023-02-27T04:54:30;3.97;;;3.67;;
8622;SDS011;4349;47.552;8.904;2023-02-27T04:57:01;3.43;;;3.30;;
8622;SDS011;4349;47.552;8.904;2023-02-27T04:59:31;3.57;;;3.37;;
8622;SDS011;4349;47.552;8.904;2023-02-27T05:02:01;3.90;;;3.70;;
8622;SDS011;4349;47.552;8.904;2023-02-27T05:04:30;3.87;;;3.67;;
8622;SDS011;4349;47.552;8.904;2023-02-27T05:06:59;3.97;;;3.60;;
8622;SDS011;4349;47.552;8.904;2023-02-27T05:09:30;3.77;;;3.57;;
8622;SDS011;4349;47.552;8.904;2023-02-27T05:12:03;3.83;;;3.63;;
8622;SDS011;4349;47.552;8.904;2023-02-27T05:14:32;4.13;;;3.83;;
8622;SDS011;4349;47.552;8.904;2023-02-27T05:17:03;3.50;;;3.30;;
8622;SDS011;4349;47.552;8.904;2023-02-27T05:19:33;3.50;;;3.30;;
8622;SDS011;4349;47.552;8.904;2023-02-27T05:22:05;3.17;;;3.07;;
8622;SDS011;4349;47.552;8.904;2023-02-27T05:24:38;4.00;;;3.70;;
8622;SDS011;4349;47.552;8.904;2023-02-27T05:27:14;3.87;;;3.67;;
8622;SDS011;4349;47.552;8.904;2023-02-27T05:29:45;3.77;;;3.27;;
8622;SDS011;4349;47.552;8.904;2023-02-27T05:32:17;3.60;;;3.30;;
8622;SDS011;4349;47.552;8.904;2023-02-27T05:34:48;3.77;;;3.57;;
8622;SDS011;4349;47.552;8.904;2023-02-27T05:37:17;3.93;;;3.63;;
8622;SDS011;4349;47.552;8.904;2023-02-27T05:39:46;3.60;;;3.30;;
8622;SDS011;4349;47.552;8.904;2023-02-27T05:42:17;3.47;;;3.30;;
8622;SDS011;4349;47.552;8.904;2023-02-27T05:44:46;3.77;;;3.53;;
8622;SDS011;4349;47.552;8.904;2023-02-27T05:47:17;3.93;;;3.63;;
8622;SDS011;4349;47.552;8.904;2023-02-27T05:49:49;3.60;;;3.43;;
8622;SDS011;4349;47.552;8.904;2023-02-27T05:52:18;4.20;;;3.90;;
8622;SDS011;4349;47.552;8.904;2023-02-27T05:54:47;3.80;;;3.57;;
8622;SDS011;4349;47.552;8.904;2023-02-27T05:57:19;3.43;;;3.23;;
8622;SDS011;4349;47.552;8.904;2023-02-27T05:59:51;5.47;;;3.90;;
8622;SDS011;4349;47.552;8.904;2023-02-27T06:02:22;4.87;;;4.10;;
8622;SDS011;4349;47.552;8.904;2023-02-27T06:04:50;4.20;;;3.80;;
8622;SDS011;4349;47.552;8.904;2023-02-27T06:07:18;4.53;;;4.23;;
8622;SDS011;4349;47.552;8.904;2023-02-27T06:09:47;4.20;;;4.00;;
8622;SDS011;4349;47.552;8.904;2023-02-27T06:12:15;6.50;;;6.03;;
8622;SDS011;4349;47.552;8.904;2023-02-27T06:14:46;5.00;;;4.70;;
8622;SDS011;4349;47.552;8.904;2023-02-27T06:17:14;4.13;;;3.83;;
8622;SDS011;4349;47.552;8.904;2023-02-27T06:19:42;4.33;;;3.93;;
8622;SDS011;4349;47.552;8.904;2023-02-27T06:22:11;4.20;;;3.90;;
8622;SDS011;4349;47.552;8.904;2023-02-27T06:24:39;4.30;;;4.00;;
8622;SDS011;4349;47.552;8.904;2023-02-27T06:27:07;3.90;;;3.70;;
8622;SDS011;4349;47.552;8.904;2023-02-27T06:29:35;3.70;;;3.50;;
8622;SDS011;4349;47.552;8.904;2023-02-27T06:32:04;3.80;;;3.60;;
8622;SDS011;4349;47.552;8.904;2023-02-27T06:34:32;4.17;;;3.87;;
8622;SDS011;4349;47.552;8.904;2023-02-27T06:37:00;4.10;;;3.90;;
8622;SDS011;4349;47.552;8.904;2023-02-27T06:39:30;4.20;;;3.90;;
8622;SDS011;4349;47.552;8.904;2023-02-27T06:41:58;3.87;;;3.67;;
8622;SDS011;4349;47.552;8.904;2023-02-27T06:44:28;4.40;;;4.10;;
8622;SDS011;4349;47.552;8.904;2023-02-27T06:46:55;4.40;;;4.03;;
8622;SDS011;4349;47.552;8.904;2023-02-27T06:49:24;3.97;;;3.77;;
8622;SDS011;4349;47.552;8.904;2023-02-27T06:51:51;4.20;;;3.90;;
8622;SDS011;4349;47.552;8.904;2023-02-27T06:54:19;4.13;;;3.93;;
8622;SDS011;4349;47.552;8.904;2023-02-27T06:56:47;3.87;;;3.67;;
8622;SDS011;4349;47.552;8.904;2023-02-27T06:59:16;4.43;;;4.13;;
8622;SDS011;4349;47.552;8.904;2023-02-27T07:01:44;4.20;;;3.90;;
8622;SDS011;4349;47.552;8.904;2023-02-27T07:04:12;3.77;;;3.50;;
8622;SDS011;4349;47.552;8.904;2023-02-27T07:06:42;3.63;;;3.43;;
8622;SDS011;4349;47.552;8.904;2023-02-27T07:09:30;3.70;;;3.50;;
8622;SDS011;4349;47.552;8.904;2023-02-27T07:11:58;4.17;;;3.97;;
8622;SDS011;4349;47.552;8.904;2023-02-27T07:14:25;4.60;;;4.30;;
8622;SDS011;4349;47.552;8.904;2023-02-27T07:16:52;3.80;;;3.57;;
8622;SDS011;4349;47.552;8.904;2023-02-27T07:19:20;4.13;;;3.73;;
8622;SDS011;4349;47.552;8.904;2023-02-27T07:21:49;3.90;;;3.70;;
8622;SDS011;4349;47.552;8.904;2023-02-27T07:24:17;4.30;;;3.93;;
8622;SDS011;4349;47.552;8.904;2023-02-27T07:26:45;3.33;;;3.23;;
8622;SDS011;4349;47.552;8.904;2023-02-27T07:29:13;4.10;;;3.80;;
8622;SDS011;4349;47.552;8.904;2023-02-27T07:31:42;3.93;;;3.73;;
8622;SDS011;4349;47.552;8.904;2023-02-27T07:34:10;5.00;;;3.90;;
8622;SDS011;4349;47.552;8.904;2023-02-27T07:36:39;4.30;;;4.10;;
8622;SDS011;4349;47.552;8.904;2023-02-27T07:39:07;4.33;;;4.13;;
8622;SDS011;4349;47.552;8.904;2023-02-27T07:41:35;4.20;;;3.90;;
8622;SDS011;4349;47.552;8.904;2023-02-27T07:44:04;4.27;;;3.97;;
8622;SDS011;4349;47.552;8.904;2023-02-27T07:46:33;5.30;;;5.00;;
8622;SDS011;4349;47.552;8.904;2023-02-27T07:49:01;4.10;;;3.80;;
8622;SDS011;4349;47.552;8.904;2023-02-27T07:51:29;3.93;;;3.73;;
8622;SDS011;4349;47.552;8.904;2023-02-27T07:53:57;4.37;;;4.10;;
8622;SDS011;4349;47.552;8.904;2023-02-27T07:56:26;4.00;;;3.80;;
8622;SDS011;4349;47.552;8.904;2023-02-27T07:58:54;4.00;;;3.70;;
8622;SDS011;4349;47.552;8.904;2023-02-27T08:01:22;4.40;;;4.20;;
8622;SDS011;4349;47.552;8.904;2023-02-27T08:03:50;4.17;;;3.87;;
8622;SDS011;4349;47.552;8.904;2023-02-27T08:06:18;3.93;;;3.70;;
8622;SDS011;4349;47.552;8.904;2023-02-27T08:08:46;3.73;;;3.53;;
8622;SDS011;4349;47.552;8.904;2023-02-27T08:11:14;4.10;;;3.83;;
8622;SDS011;4349;47.552;8.904;2023-02-27T08:13:43;3.60;;;3.40;;
8622;SDS011;4349;47.552;8.904;2023-02-27T08:16:26;4.10;;;3.90;;
8622;SDS011;4349;47.552;8.904;2023-02-27T08:18:56;4.27;;;4.07;;
8622;SDS011;4349;47.552;8.904;2023-02-27T08:21:23;4.70;;;4.20;;
8622;SDS011;4349;47.552;8.904;2023-02-27T08:23:52;4.10;;;3.90;;
8622;SDS011;4349;47.552;8.904;2023-02-27T08:26:21;3.80;;;3.60;;
8622;SDS011;4349;47.552;8.904;2023-02-27T08:28:52;4.47;;;4.07;;
8622;SDS011;4349;47.552;8.904;2023-02-27T08:31:19;4.07;;;3.87;;
8622;SDS011;4349;47.552;8.904;2023-02-27T08:33:47;4.40;;;4.10;;
8622;SDS011;4349;47.552;8.904;2023-02-27T08:36:26;3.87;;;3.67;;
8622;SDS011;4349;47.552;8.904;2023-02-27T08:38:54;4.07;;;3.87;;
8622;SDS011;4349;47.552;8.904;2023-02-27T08:41:21;4.00;;;3.80;;
8622;SDS011;4349;47.552;8.904;2023-02-27T08:43:49;4.10;;;3.80;;
8622;SDS011;4349;47.552;8.904;2023-02-27T08:46:20;3.93;;;3.73;;
8622;SDS011;4349;47.552;8.904;2023-02-27T08:48:48;4.23;;;4.03;;
8622;SDS011;4349;47.552;8.904;2023-02-27T08:51:16;4.33;;;4.03;;
8622;SDS011;4349;47.552;8.904;2023-02-27T08:53:44;4.30;;;4.00;;
8622;SDS011;4349;47.552;8.904;2023-02-27T08:56:11;3.70;;;3.50;;
8622;SDS011;4349;47.552;8.904;2023-02-27T08:58:39;4.20;;;3.90;;
8622;SDS011;4349;47.552;8.904;2023-02-27T09:01:08;3.77;;;3.53;;
8622;SDS011;4349;47.552;8.904;2023-02-27T09:03:39;4.80;;;4.30;;
8622;SDS011;4349;47.552;8.904;2023-02-27T09:06:07;4.60;;;4.30;;
8622;SDS011;4349;47.552;8.904;2023-02-27T09:08:34;4.07;;;3.83;;
8622;SDS011;4349;47.552;8.904;2023-02-27T09:11:04;4.60;;;4.30;;
8622;SDS011;4349;47.552;8.904;2023-02-27T09:13:32;4.20;;;4.00;;
8622;SDS011;4349;47.552;8.904;2023-02-27T09:16:00;4.13;;;3.83;;
8622;SDS011;4349;47.552;8.904;2023-02-27T09:18:28;4.40;;;4.10;;
8622;SDS011;4349;47.552;8.904;2023-02-27T09:20:57;4.13;;;3.93;;
8622;SDS011;4349;47.552;8.904;2023-02-27T09:23:25;4.50;;;4.10;;
8622;SDS011;4349;47.552;8.904;2023-02-27T09:25:55;4.73;;;4.43;;
8622;SDS011;4349;47.552;8.904;2023-02-27T09:28:23;4.47;;;4.07;;
8622;SDS011;4349;47.552;8.904;2023-02-27T09:30:51;4.47;;;4.17;;
8622;SDS011;4349;47.552;8.904;2023-02-27T09:33:18;4.47;;;4.07;;
8622;SDS011;4349;47.552;8.904;2023-02-27T09:35:46;4.40;;;4.20;;
8622;SDS011;4349;47.552;8.904;2023-02-27T09:38:15;4.30;;;4.00;;
8622;SDS011;4349;47.552;8.904;2023-02-27T09:40:43;4.13;;;3.83;;
8622;SDS011;4349;47.552;8.904;2023-02-27T09:43:13;4.57;;;4.27;;
8622;SDS011;4349;47.552;8.904;2023-02-27T09:45:41;4.50;;;4.20;;
8622;SDS011;4349;47.552;8.904;2023-02-27T09:48:11;5.07;;;4.60;;
8622;SDS011;4349;47.552;8.904;2023-02-27T09:50:42;5.00;;;4.60;;
8622;SDS011;4349;47.552;8.904;2023-02-27T09:53:12;4.60;;;4.20;;
8622;SDS011;4349;47.552;8.904;2023-02-27T09:55:42;4.67;;;4.37;;
8622;SDS011;4349;47.552;8.904;2023-02-27T09:58:18;4.37;;;4.07;;
8622;SDS011;4349;47.552;8.904;2023-02-27T10:00:51;4.87;;;4.50;;
8622;SDS011;4349;47.552;8.904;2023-02-27T10:03:28;4.20;;;4.00;;
8622;SDS011;4349;47.552;8.904;2023-02-27T10:06:03;4.70;;;4.30;;
8622;SDS011;4349;47.552;8.904;2023-02-27T10:08:37;4.63;;;4.33;;
8622;SDS011;4349;47.552;8.904;2023-02-27T10:11:08;4.80;;;4.50;;
8622;SDS011;4349;47.552;8.904;2023-02-27T10:13:41;4.30;;;4.00;;
8622;SDS011;4349;47.552;8.904;2023-02-27T10:16:14;4.73;;;4.33;;
8622;SDS011;4349;47.552;8.904;2023-02-27T10:18:46;5.07;;;4.77;;
8622;SDS011;4349;47.552;8.904;2023-02-27T10:21:17;4.37;;;4.10;;
8622;SDS011;4349;47.552;8.904;2023-02-27T10:23:49;4.80;;;4.40;;
8622;SDS011;4349;47.552;8.904;2023-02-27T10:26:22;5.00;;;4.60;;
8622;SDS011;4349;47.552;8.904;2023-02-27T10:28:52;5.03;;;4.60;;
8622;SDS011;4349;47.552;8.904;2023-02-27T10:31:21;4.90;;;4.50;;
8622;SDS011;4349;47.552;8.904;2023-02-27T10:33:51;5.50;;;5.00;;
8622;SDS011;4349;47.552;8.904;2023-02-27T10:36:22;4.97;;;4.57;;
8622;SDS011;4349;47.552;8.904;2023-02-27T10:39:00;4.53;;;4.33;;
8622;SDS011;4349;47.552;8.904;2023-02-27T10:41:35;4.50;;;4.20;;
8622;SDS011;4349;47.552;8.904;2023-02-27T10:44:06;4.60;;;4.30;;
8622;SDS011;4349;47.552;8.904;2023-02-27T10:46:35;4.83;;;4.50;;
8622;SDS011;4349;47.552;8.904;2023-02-27T10:49:12;5.00;;;4.60;;
8622;SDS011;4349;47.552;8.904;2023-02-27T10:51:42;4.83;;;4.43;;
8622;SDS011;4349;47.552;8.904;2023-02-27T10:54:13;4.83;;;4.30;;
8622;SDS011;4349;47.552;8.904;2023-02-27T10:56:44;4.87;;;4.40;;
8622;SDS011;4349;47.552;8.904;2023-02-27T10:59:16;4.63;;;4.33;;
8622;SDS011;4349;47.552;8.904;2023-02-27T11:01:46;4.57;;;4.27;;
8622;SDS011;4349;47.552;8.904;2023-02-27T11:04:21;5.63;;;5.23;;
8622;SDS011;4349;47.552;8.904;2023-02-27T11:06:51;4.90;;;4.60;;
8622;SDS011;4349;47.552;8.904;2023-02-27T11:09:20;4.80;;;4.50;;
8622;SDS011;4349;47.552;8.904;2023-02-27T11:11:50;4.40;;;4.17;;
8622;SDS011;4349;47.552;8.904;2023-02-27T11:14:25;4.37;;;4.10;;
8622;SDS011;4349;47.552;8.904;2023-02-27T11:16:53;4.43;;;4.13;;
8622;SDS011;4349;47.552;8.904;2023-02-27T11:19:28;4.60;;;4.20;;
8622;SDS011;4349;47.552;8.904;2023-02-27T11:22:01;4.77;;;4.40;;
8622;SDS011;4349;47.552;8.904;2023-02-27T11:24:29;5.03;;;4.70;;
8622;SDS011;4349;47.552;8.904;2023-02-27T11:26:59;4.20;;;3.90;;
8622;SDS011;4349;47.552;8.904;2023-02-27T11:29:28;4.43;;;4.13;;
8622;SDS011;4349;47.552;8.904;2023-02-27T11:31:57;4.10;;;3.90;;
8622;SDS011;4349;47.552;8.904;2023-02-27T11:34:27;4.87;;;4.40;;
8622;SDS011;4349;47.552;8.904;2023-02-27T11:36:58;4.17;;;3.87;;
8622;SDS011;4349;47.552;8.904;2023-02-27T11:39:28;4.37;;;4.07;;
8622;SDS011;4349;47.552;8.904;2023-02-27T11:42:04;5.03;;;4.63;;
8622;SDS011;4349;47.552;8.904;2023-02-27T11:44:33;4.30;;;4.00;;
8622;SDS011;4349;47.552;8.904;2023-02-27T11:47:18;4.33;;;3.97;;
8622;SDS011;4349;47.552;8.904;2023-02-27T11:52:30;7.00;;;4.87;;
8622;SDS011;4349;47.552;8.904;2023-02-27T11:55:01;4.53;;;4.23;;
8622;SDS011;4349;47.552;8.904;2023-02-27T11:57:31;4.60;;;4.27;;
8622;SDS011;4349;47.552;8.904;2023-02-27T12:00:00;4.30;;;4.10;;
8622;SDS011;4349;47.552;8.904;2023-02-27T12:02:39;4.90;;;4.50;;
8622;SDS011;4349;47.552;8.904;2023-02-27T12:05:13;4.10;;;3.90;;
8622;SDS011;4349;47.552;8.904;2023-02-27T12:07:43;4.93;;;4.53;;
8622;SDS011;4349;47.552;8.904;2023-02-27T12:10:13;4.30;;;4.10;;
8622;SDS011;4349;47.552;8.904;2023-02-27T12:12:46;4.50;;;4.20;;
8622;SDS011;4349;47.552;8.904;2023-02-27T12:15:16;4.67;;;4.37;;
8622;SDS011;4349;47.552;8.904;2023-02-27T12:17:46;4.80;;;4.40;;
8622;SDS011;4349;47.552;8.904;2023-02-27T12:20:26;4.23;;;4.03;;
8622;SDS011;4349;47.552;8.904;2023-02-27T12:22:56;4.43;;;4.03;;
8622;SDS011;4349;47.552;8.904;2023-02-27T12:25:32;4.70;;;4.40;;
8622;SDS011;4349;47.552;8.904;2023-02-27T12:28:05;4.43;;;4.10;;
8622;SDS011;4349;47.552;8.904;2023-02-27T12:30:35;5.30;;;4.90;;
8622;SDS011;4349;47.552;8.904;2023-02-27T12:33:08;5.60;;;5.20;;
8622;SDS011;4349;47.552;8.904;2023-02-27T12:35:40;4.80;;;4.50;;
8622;SDS011;4349;47.552;8.904;2023-02-27T12:38:12;4.67;;;4.30;;
8622;SDS011;4349;47.552;8.904;2023-02-27T12:40:44;6.03;;;5.53;;
8622;SDS011;4349;47.552;8.904;2023-02-27T12:43:19;5.80;;;5.33;;
8622;SDS011;4349;47.552;8.904;2023-02-27T12:45:52;6.17;;;4.90;;
8622;SDS011;4349;47.552;8.904;2023-02-27T12:48:37;5.13;;;4.70;;
8622;SDS011;4349;47.552;8.904;2023-02-27T12:51:20;5.00;;;4.70;;
8622;SDS011;4349;47.552;8.904;2023-02-27T12:53:55;5.60;;;5.10;;
8622;SDS011;4349;47.552;8.904;2023-02-27T12:56:27;5.10;;;4.80;;
8622;SDS011;4349;47.552;8.904;2023-02-27T12:59:00;5.70;;;5.20;;
8622;SDS011;4349;47.552;8.904;2023-02-27T13:01:34;5.63;;;5.17;;
8622;SDS011;4349;47.552;8.904;2023-02-27T13:04:06;6.07;;;5.67;;
8622;SDS011;4349;47.552;8.904;2023-02-27T13:06:39;6.03;;;5.50;;
8622;SDS011;4349;47.552;8.904;2023-02-27T13:09:14;5.93;;;5.43;;
8622;SDS011;4349;47.552;8.904;2023-02-27T13:11:47;6.27;;;5.80;;
8622;SDS011;4349;47.552;8.904;2023-02-27T13:14:24;6.17;;;5.73;;
8622;SDS011;4349;47.552;8.904;2023-02-27T13:16:58;6.10;;;5.60;;
8622;SDS011;4349;47.552;8.904;2023-02-27T13:19:28;6.17;;;5.67;;
8622;SDS011;4349;47.552;8.904;2023-02-27T13:22:00;6.43;;;5.93;;
8622;SDS011;4349;47.552;8.904;2023-02-27T13:24:29;6.53;;;5.97;;
8622;SDS011;4349;47.552;8.904;2023-02-27T13:26:59;6.27;;;5.77;;
8622;SDS011;4349;47.552;8.904;2023-02-27T13:29:37;6.13;;;5.63;;
8622;SDS011;4349;47.552;8.904;2023-02-27T13:32:14;6.40;;;5.87;;
8622;SDS011;4349;47.552;8.904;2023-02-27T13:34:52;6.50;;;6.00;;
8622;SDS011;4349;47.552;8.904;2023-02-27T13:37:22;6.30;;;5.77;;
8622;SDS011;4349;47.552;8.904;2023-02-27T13:39:52;6.90;;;5.90;;
8622;SDS011;4349;47.552;8.904;2023-02-27T13:47:54;6.27;;;5.67;;
8622;SDS011;4349;47.552;8.904;2023-02-27T13:53:19;6.00;;;5.60;;
8622;SDS011;4349;47.552;8.904;2023-02-27T13:55:51;6.03;;;5.53;;
8622;SDS011;4349;47.552;8.904;2023-02-27T13:58:21;6.10;;;5.60;;
8622;SDS011;4349;47.552;8.904;2023-02-27T14:00:55;6.30;;;5.70;;
8622;SDS011;4349;47.552;8.904;2023-02-27T14:03:26;5.83;;;5.30;;
8622;SDS011;4349;47.552;8.904;2023-02-27T14:05:56;6.93;;;6.43;;
8622;SDS011;4349;47.552;8.904;2023-02-27T14:08:25;5.83;;;5.37;;
8622;SDS011;4349;47.552;8.904;2023-02-27T14:10:57;6.07;;;5.57;;
8622;SDS011;4349;47.552;8.904;2023-02-27T14:18:59;6.03;;;5.57;;
8622;SDS011;4349;47.552;8.904;2023-02-27T14:24:14;5.90;;;5.40;;
8622;SDS011;4349;47.552;8.904;2023-02-27T14:26:42;5.50;;;5.10;;
8622;SDS011;4349;47.552;8.904;2023-02-27T14:29:14;5.97;;;5.57;;
8622;SDS011;4349;47.552;8.904;2023-02-27T14:31:44;5.90;;;5.50;;
8622;SDS011;4349;47.552;8.904;2023-02-27T14:34:13;5.90;;;5.40;;
8622;SDS011;4349;47.552;8.904;2023-02-27T14:36:43;5.47;;;4.97;;
8622;SDS011;4349;47.552;8.904;2023-02-27T14:39:17;6.40;;;5.43;;
8622;SDS011;4349;47.552;8.904;2023-02-27T14:41:46;5.73;;;5.33;;
8622;SDS011;4349;47.552;8.904;2023-02-27T14:44:17;6.10;;;5.70;;
8622;SDS011;4349;47.552;8.904;2023-02-27T14:46:46;6.47;;;5.87;;
8622;SDS011;4349;47.552;8.904;2023-02-27T14:49:20;6.03;;;5.50;;
8622;SDS011;4349;47.552;8.904;2023-02-27T14:51:49;6.27;;;5.87;;
8622;SDS011;4349;47.552;8.904;2023-02-27T14:54:18;5.80;;;5.40;;
8622;SDS011;4349;47.552;8.904;2023-02-27T14:56:53;5.63;;;5.23;;
8622;SDS011;4349;47.552;8.904;2023-02-27T14:59:22;6.27;;;5.77;;
8622;SDS011;4349;47.552;8.904;2023-02-27T15:01:50;5.50;;;5.10;;
8622;SDS011;4349;47.552;8.904;2023-02-27T15:04:20;6.03;;;5.60;;
8622;SDS011;4349;47.552;8.904;2023-02-27T15:06:49;6.07;;;5.47;;
8622;SDS011;4349;47.552;8.904;2023-02-27T15:09:21;5.33;;;4.93;;
8622;SDS011;4349;47.552;8.904;2023-02-27T15:11:51;5.63;;;5.20;;
8622;SDS011;4349;47.552;8.904;2023-02-27T15:14:30;5.60;;;5.23;;
8622;SDS011;4349;47.552;8.904;2023-02-27T15:16:58;5.53;;;5.13;;
8622;SDS011;4349;47.552;8.904;2023-02-27T15:19:28;5.90;;;5.40;;
8622;SDS011;4349;47.552;8.904;2023-02-27T15:21:58;4.93;;;4.63;;
8622;SDS011;4349;47.552;8.904;2023-02-27T15:24:30;5.77;;;5.37;;
8622;SDS011;4349;47.552;8.904;2023-02-27T15:27:17;5.60;;;5.20;;
8622;SDS011;4349;47.552;8.904;2023-02-27T15:29:48;6.60;;;5.60;;
8622;SDS011;4349;47.552;8.904;2023-02-27T15:32:18;5.63;;;5.20;;
8622;SDS011;4349;47.552;8.904;2023-02-27T15:34:51;5.30;;;4.90;;
8622;SDS011;4349;47.552;8.904;2023-02-27T15:37:20;5.63;;;5.13;;
8622;SDS011;4349;47.552;8.904;2023-02-27T15:39:50;5.10;;;4.80;;
8622;SDS011;4349;47.552;8.904;2023-02-27T15:42:19;5.97;;;4.90;;
8622;SDS011;4349;47.552;8.904;2023-02-27T15:44:48;5.80;;;5.37;;
8622;SDS011;4349;47.552;8.904;2023-02-27T15:47:17;4.70;;;4.50;;
8622;SDS011;4349;47.552;8.904;2023-02-27T15:49:47;5.30;;;4.90;;
8622;SDS011;4349;47.552;8.904;2023-02-27T15:52:20;5.00;;;4.53;;
8622;SDS011;4349;47.552;8.904;2023-02-27T15:54:50;5.00;;;4.70;;
8622;SDS011;4349;47.552;8.904;2023-02-27T15:57:18;5.00;;;4.63;;
8622;SDS011;4349;47.552;8.904;2023-02-27T15:59:47;4.93;;;4.63;;
8622;SDS011;4349;47.552;8.904;2023-02-27T16:02:17;4.63;;;4.33;;
8622;SDS011;4349;47.552;8.904;2023-02-27T16:04:46;5.03;;;4.70;;
8622;SDS011;4349;47.552;8.904;2023-02-27T16:07:17;5.10;;;4.70;;